Time;durP1;ratioP1;P1;durP2;ratioP2;P2;SDS_P1;SDS_P2;PMS_P1;PMS_P2;Temp;Humidity;BMP_temperature;BMP_pressure;BME280_temperature;BME280_humidity;BME280_pressure;Samples;Min_cycle;Max_cycle;Signal;HPM_P1;HPM_P2
2022/10/12 00:20:06;;;;;;;1999.90;999.90;;;6.60;99.90;;;;;;6751693;88;20266;-79
2022/10/12 03:41:16;;;;;;;1999.90;999.90;;;4.90;99.90;;;;;;6729383;88;20234;-79
2022/10/12 03:51:16;;;;;;;1999.90;999.90;;;4.90;99.90;;;;;;6728087;88;20206;-79
2022/10/12 04:01:17;;;;;;;1999.90;999.90;;;4.80;99.90;;;;;;6730156;88;20298;-79
2022/10/12 04:11:19;;;;;;;1999.90;999.90;;;4.90;99.90;;;;;;6730540;88;20207;-76
2022/10/12 04:21:21;;;;;;;1999.90;999.90;;;4.90;99.90;;;;;;6732322;88;20170;-78
2022/10/12 04:31:21;;;;;;;1999.90;999.90;;;4.80;99.90;;;;;;6731410;88;20328;-78
2022/10/12 04:41:22;;;;;;;1999.90;999.90;;;4.70;99.90;;;;;;6725197;88;20197;-76
2022/10/12 04:51:23;;;;;;;1999.90;999.90;;;4.80;99.90;;;;;;6723354;88;20210;-77
2022/10/12 05:01:24;;;;;;;1999.90;999.90;;;4.70;99.90;;;;;;6720954;88;20201;-77
2022/10/12 05:11:24;;;;;;;1999.90;999.90;;;4.70;99.90;;;;;;6722891;88;20298;-77
2022/10/12 05:21:25;;;;;;;1999.90;999.90;;;4.90;99.90;;;;;;6726173;88;20889;-78
2022/10/12 05:31:25;;;;;;;1999.90;999.90;;;5.00;99.90;;;;;;6724912;88;20696;-77
2022/10/12 05:41:26;;;;;;;1999.90;999.90;;;4.80;99.90;;;;;;6720655;88;20714;-78
2022/10/12 05:51:26;;;;;;;1999.90;999.90;;;4.80;99.90;;;;;;6725372;88;20267;-77
2022/10/12 06:01:27;;;;;;;1999.90;999.90;;;5.00;99.90;;;;;;6722799;88;20215;-78
2022/10/12 06:11:27;;;;;;;1999.90;999.90;;;4.80;99.90;;;;;;6731223;88;20193;-79
2022/10/12 06:21:28;;;;;;;1999.90;999.90;;;4.80;99.90;;;;;;6723999;88;20653;-78
2022/10/12 06:31:29;;;;;;;1999.90;999.90;;;4.80;99.90;;;;;;6724981;88;20610;-78
2022/10/12 06:41:29;;;;;;;1999.90;999.90;;;5.10;99.90;;;;;;6728704;88;20255;-77
2022/10/12 06:51:30;;;;;;;1999.90;999.90;;;5.30;99.90;;;;;;6724063;88;20192;-77
2022/10/12 07:01:31;;;;;;;1999.90;999.90;;;5.40;99.90;;;;;;6723783;88;20270;-77
2022/10/12 07:11:31;;;;;;;1999.90;999.90;;;5.60;99.90;;;;;;6724721;88;20243;-82
2022/10/12 07:21:32;;;;;;;1999.90;999.90;;;5.70;99.90;;;;;;6727899;88;20248;-79
2022/10/12 07:31:32;;;;;;;1999.90;999.90;;;6.10;99.90;;;;;;6724402;88;20221;-77
2022/10/12 07:41:33;;;;;;;1999.90;999.90;;;6.70;99.90;;;;;;6714606;88;20184;-77
2022/10/12 07:51:33;;;;;;;1999.90;999.90;;;8.00;99.90;;;;;;6717789;88;20222;-77
2022/10/12 08:01:34;;;;;;;1999.90;999.90;;;9.40;99.90;;;;;;6723256;88;20218;-76
2022/10/12 08:11:39;;;;;;;1999.90;999.90;;;9.70;99.90;;;;;;6723021;88;20231;-78
2022/10/12 08:21:41;;;;;;;1999.90;999.90;;;9.60;99.90;;;;;;6729685;88;20210;-78
2022/10/12 08:31:42;;;;;;;1999.90;999.90;;;9.70;99.90;;;;;;6731014;88;20194;-78
2022/10/12 08:42:00;;;;;;;1999.90;999.90;;;10.20;99.90;;;;;;6723739;88;20613;-77
2022/10/12 08:52:05;;;;;;;1999.90;999.90;;;10.50;99.90;;;;;;6721253;88;20189;-76
2022/10/12 09:02:33;;;;;;;1999.90;999.90;;;11.50;99.90;;;;;;6722596;88;20200;-76
2022/10/12 09:12:33;;;;;;;1999.90;999.90;;;11.60;99.90;;;;;;6726075;88;20193;-76
2022/10/12 09:22:34;;;;;;;1999.90;999.90;;;12.10;99.90;;;;;;6723423;88;20186;-76
2022/10/12 09:32:42;;;;;;;1999.90;999.90;;;12.40;99.90;;;;;;6725523;77;20203;-77
2022/10/12 09:42:44;;;;;;;1999.90;999.90;;;12.30;99.90;;;;;;6721746;88;20335;-77
2022/10/12 09:52:45;;;;;;;1999.90;999.90;;;13.30;99.90;;;;;;6737714;88;20228;-79
2022/10/12 10:02:47;;;;;;;1999.90;999.90;;;13.60;99.90;;;;;;6730032;88;20636;-77
2022/10/12 10:12:57;;;;;;;1999.90;999.90;;;15.00;99.90;;;;;;6722909;88;20182;-78
2022/10/12 10:22:59;;;;;;;1999.90;999.90;;;16.70;99.90;;;;;;6719566;88;21012;-78
2022/10/12 10:33:12;;;;;;;1999.90;999.90;;;18.80;99.90;;;;;;6725390;88;20208;-78
2022/10/12 10:43:27;;;;;;;1999.90;999.90;;;19.20;99.90;;;;;;6718058;88;20744;-78
2022/10/12 10:53:48;;;;;;;1999.90;999.90;;;20.20;99.90;;;;;;6724956;88;20189;-78
2022/10/12 11:04:01;;;;;;;1999.90;999.90;;;19.80;99.90;;;;;;6720292;88;20182;-79
2022/10/12 11:14:12;;;;;;;1999.90;999.90;;;19.80;99.90;;;;;;6722852;88;21071;-78
2022/10/12 11:24:28;;;;;;;1999.90;999.90;;;19.20;99.90;;;;;;6722227;88;20228;-78
2022/10/12 11:34:37;;;;;;;1999.90;999.90;;;19.50;99.90;;;;;;6715884;88;20238;-77
2022/10/12 11:44:43;;;;;;;1999.90;999.90;;;19.80;99.90;;;;;;6726357;88;20356;-78
2022/10/12 11:55:19;;;;;;;1999.90;999.90;;;21.70;99.90;;;;;;6722592;88;20657;-78
2022/10/12 12:05:20;;;;;;;1999.90;999.90;;;23.60;98.30;;;;;;6713172;88;20186;-78
2022/10/12 12:15:21;;;;;;;1999.90;999.90;;;24.20;96.90;;;;;;6720437;88;20761;-78
2022/10/12 12:25:30;;;;;;;1999.90;999.90;;;25.10;96.40;;;;;;6723537;88;20701;-78
2022/10/12 12:35:40;;;;;;;1999.90;999.90;;;24.20;96.70;;;;;;6722816;88;20214;-78
2022/10/12 12:45:53;;;;;;;1999.90;999.90;;;25.10;95.80;;;;;;6723526;88;20181;-78
2022/10/12 12:56:01;;;;;;;1999.90;999.90;;;27.40;94.80;;;;;;6726156;88;20322;-78
2022/10/12 13:06:32;;;;;;;1999.90;999.90;;;25.80;95.30;;;;;;6726298;88;20182;-78
2022/10/12 13:16:50;;;;;;;1999.90;999.90;;;20.90;99.40;;;;;;6722273;88;20353;-78
2022/10/12 13:26:58;;;;;;;1999.90;999.90;;;21.10;99.10;;;;;;6720159;88;20186;-79
2022/10/12 13:37:01;;;;;;;1999.90;999.90;;;23.00;98.70;;;;;;6723788;88;20307;-78
2022/10/12 13:47:19;;;;;;;1999.90;999.90;;;24.20;96.30;;;;;;6722740;88;20311;-78
2022/10/12 13:57:37;;;;;;;1999.90;999.90;;;22.70;97.90;;;;;;6734856;88;20647;-76
2022/10/12 14:07:39;;;;;;;1999.90;999.90;;;22.70;98.30;;;;;;6729162;88;20984;-77
2022/10/12 14:17:44;;;;;;;1999.90;999.90;;;23.30;97.30;;;;;;6726102;88;20206;-76
2022/10/12 14:27:45;;;;;;;1999.90;999.90;;;21.90;98.40;;;;;;6724966;88;20218;-78
2022/10/12 14:37:46;;;;;;;1999.90;999.90;;;21.50;99.10;;;;;;6723636;88;20194;-78
2022/10/12 14:47:47;;;;;;;1999.90;999.90;;;20.20;99.90;;;;;;6722417;88;20205;-78
2022/10/12 14:57:48;;;;;;;1999.90;999.90;;;19.90;99.90;;;;;;6725583;88;20220;-77
2022/10/12 15:07:50;;;;;;;1999.90;999.90;;;19.30;99.90;;;;;;6724912;88;20205;-77
2022/10/12 15:17:51;;;;;;;1999.90;999.90;;;18.80;99.90;;;;;;6723437;88;20231;-78
2022/10/12 15:27:51;;;;;;;1999.90;999.90;;;18.50;99.90;;;;;;6718645;88;20268;-79
2022/10/12 15:38:13;;;;;;;1999.90;999.90;;;18.60;99.90;;;;;;6729263;76;20277;-79
2022/10/12 15:48:13;;;;;;;1999.90;999.90;;;19.00;99.90;;;;;;6727348;88;20716;-79
2022/10/12 15:58:14;;;;;;;1999.90;999.90;;;18.70;99.90;;;;;;6728149;88;20310;-81
2022/10/12 16:08:14;;;;;;;1999.90;999.90;;;17.40;99.90;;;;;;6731093;88;20189;-79
2022/10/12 16:18:16;;;;;;;1999.90;999.90;;;17.30;99.90;;;;;;6728225;88;20229;-78
2022/10/12 16:28:16;;;;;;;1999.90;999.90;;;16.70;99.90;;;;;;6727837;88;20221;-78
2022/10/12 16:38:19;;;;;;;1999.90;999.90;;;16.30;99.90;;;;;;6728866;88;21114;-78
2022/10/12 16:48:19;;;;;;;1999.90;999.90;;;15.80;99.90;;;;;;6727517;88;20165;-78
2022/10/12 16:58:20;;;;;;;1999.90;999.90;;;15.50;99.90;;;;;;6727780;88;20188;-78
2022/10/12 17:08:20;;;;;;;1999.90;999.90;;;15.30;99.90;;;;;;6728103;88;20213;-78
2022/10/12 17:18:21;;;;;;;1999.90;999.90;;;15.00;99.90;;;;;;6727935;88;21092;-79
2022/10/12 17:28:21;;;;;;;1999.90;999.90;;;15.10;99.90;;;;;;6727693;88;20184;-79
2022/10/12 17:38:22;;;;;;;1999.90;999.90;;;14.80;99.90;;;;;;6727981;88;20217;-79
2022/10/12 17:48:22;;;;;;;1999.90;999.90;;;14.50;99.90;;;;;;6723008;88;20204;-79
2022/10/12 17:58:23;;;;;;;1999.90;999.90;;;14.50;99.90;;;;;;6727008;88;20208;-78
2022/10/12 18:08:24;;;;;;;1999.90;999.90;;;14.70;99.90;;;;;;6726870;88;20188;-78
2022/10/12 18:18:24;;;;;;;1999.90;999.90;;;14.60;99.90;;;;;;6727993;88;20202;-79
2022/10/12 18:28:25;;;;;;;1999.90;999.90;;;14.60;99.90;;;;;;6719179;88;20373;-79
2022/10/12 18:38:26;;;;;;;1999.90;999.90;;;14.50;99.90;;;;;;6725588;88;20197;-79
2022/10/12 18:48:27;;;;;;;1999.90;999.90;;;14.40;99.90;;;;;;6724622;88;20276;-80
2022/10/12 18:58:27;;;;;;;1999.90;999.90;;;14.20;99.90;;;;;;6724807;88;20192;-80
2022/10/12 19:08:28;;;;;;;1999.90;999.90;;;13.70;99.90;;;;;;6726439;88;20203;-80
2022/10/12 19:18:28;;;;;;;1999.90;999.90;;;13.40;99.90;;;;;;6730975;88;20287;-80
2022/10/12 19:28:29;;;;;;;1999.90;999.90;;;13.30;99.90;;;;;;6696917;88;20223;-80
2022/10/12 19:38:30;;;;;;;1999.90;999.90;;;13.00;99.90;;;;;;6658856;88;20365;-80
2022/10/12 19:48:30;;;;;;;1999.90;999.90;;;12.80;99.90;;;;;;6642924;88;20212;-79
2022/10/12 19:58:31;;;;;;;1999.90;999.90;;;12.70;99.90;;;;;;6643288;88;20318;-80
2022/10/12 20:08:32;;;;;;;1999.90;999.90;;;12.50;99.90;;;;;;6657593;88;20801;-80
2022/10/12 20:18:33;;;;;;;1999.90;999.90;;;12.40;99.90;;;;;;6647721;88;20217;-79
2022/10/12 20:28:35;;;;;;;1999.90;999.90;;;12.20;99.90;;;;;;6645649;89;20227;-79
2022/10/12 20:38:36;;;;;;;1999.90;999.90;;;11.90;99.90;;;;;;6643577;89;20230;-80
2022/10/12 20:48:38;;;;;;;1999.90;999.90;;;11.40;99.90;;;;;;6653881;88;20403;-80
2022/10/12 20:58:39;;;;;;;1999.90;999.90;;;11.40;99.90;;;;;;6644479;88;20621;-80
2022/10/12 21:08:40;;;;;;;1999.90;999.90;;;11.30;99.90;;;;;;6659112;88;20188;-80
2022/10/12 21:18:41;;;;;;;1999.90;999.90;;;11.20;99.90;;;;;;6654513;88;20730;-79
2022/10/12 21:28:42;;;;;;;1999.90;999.90;;;11.30;99.90;;;;;;6638885;88;20229;-79
2022/10/12 21:38:43;;;;;;;1999.90;999.90;;;11.30;99.90;;;;;;6689778;77;20321;-76
2022/10/12 21:48:44;;;;;;;1999.90;999.90;;;11.50;99.90;;;;;;6725587;88;20815;-77
2022/10/12 21:58:47;;;;;;;1999.90;999.90;;;11.30;99.90;;;;;;6738549;88;20212;-76
2022/10/12 22:09:01;;;;;;;1999.90;999.90;;;11.20;99.90;;;;;;6726262;88;20221;-76
2022/10/12 22:19:06;;;;;;;1999.90;999.90;;;11.10;99.90;;;;;;6728384;88;20173;-77
2022/10/12 22:29:07;;;;;;;1999.90;999.90;;;11.30;99.90;;;;;;6729050;88;20304;-76
2022/10/12 22:39:07;;;;;;;1999.90;999.90;;;11.20;99.90;;;;;;6729185;88;20790;-76
2022/10/12 22:49:08;;;;;;;1999.90;999.90;;;11.30;99.90;;;;;;6727229;88;20221;-76
2022/10/12 22:59:13;;;;;;;1999.90;999.90;;;11.20;99.90;;;;;;6733865;88;20192;-76
2022/10/12 23:09:14;;;;;;;1999.90;999.90;;;11.00;99.90;;;;;;6734132;88;20698;-77
2022/10/12 23:19:14;;;;;;;1999.90;999.90;;;11.00;99.90;;;;;;6734171;88;20188;-78
2022/10/12 23:29:15;;;;;;;1999.90;999.90;;;11.00;99.90;;;;;;6731627;88;20186;-78
2022/10/12 23:39:15;;;;;;;1999.90;999.90;;;11.00;99.90;;;;;;6729365;88;20181;-79
2022/10/12 23:49:16;;;;;;;1999.90;999.90;;;10.80;99.90;;;;;;6735058;88;20636;-77
2022/10/12 23:59:17;;;;;;;1999.90;999.90;;;10.80;99.90;;;;;;6730392;88;20162;-76
